Terminal Aerodrome Forecast
Issued by NWS Charleston, WV

Current Version | Previous Version | Graphics & Text | Print | Product List | Glossary On
Versions: 1 2 3 4 5 6 7 8 9 10 11 12 13 14 15 16 17 18 19 20 21 22 23 24 25 26
000
FTUS41 KRLX 262300 RRA
TAFBKW
TAF
KBKW 262344Z 2700/2724 23004KT P6SM SCT250
     FM271300 25005KT P6SM VCTS SCT040CB BKN060
     FM271500 24008KT P6SM TSRA BKN040CB
     FM271700 21006KT P6SM SCT045
     FM272000 21011G20KT P6SM +TSRA SCT045CB BKN100=

USA.gov is the U.S. government's official web portal to all federal, state and local government web resources and services.